sensor_id;sensor_type;location;lat;lon;timestamp;P1;durP1;ratioP1;P2;durP2;ratioP2
11247;SDS011;5681;53.316;13.950;2023-04-01T00:02:18;5.90;;;5.30;;
11247;SDS011;5681;53.316;13.950;2023-04-01T00:04:46;6.53;;;5.30;;
11247;SDS011;5681;53.316;13.950;2023-04-01T00:07:12;5.97;;;5.38;;
11247;SDS011;5681;53.316;13.950;2023-04-01T00:09:39;5.35;;;4.85;;
11247;SDS011;5681;53.316;13.950;2023-04-01T00:12:05;5.10;;;4.63;;
11247;SDS011;5681;53.316;13.950;2023-04-01T00:14:32;5.05;;;4.50;;
11247;SDS011;5681;53.316;13.950;2023-04-01T00:16:58;5.70;;;5.10;;
11247;SDS011;5681;53.316;13.950;2023-04-01T00:19:24;6.03;;;5.43;;
11247;SDS011;5681;53.316;13.950;2023-04-01T00:21:52;7.13;;;5.78;;
11247;SDS011;5681;53.316;13.950;2023-04-01T00:24:18;6.28;;;5.38;;
11247;SDS011;5681;53.316;13.950;2023-04-01T00:26:45;7.05;;;6.13;;
11247;SDS011;5681;53.316;13.950;2023-04-01T00:29:12;6.25;;;5.72;;
11247;SDS011;5681;53.316;13.950;2023-04-01T00:31:38;7.13;;;6.43;;
11247;SDS011;5681;53.316;13.950;2023-04-01T00:34:05;9.45;;;6.85;;
11247;SDS011;5681;53.316;13.950;2023-04-01T00:36:31;6.72;;;6.13;;
11247;SDS011;5681;53.316;13.950;2023-04-01T00:39:00;7.78;;;7.00;;
11247;SDS011;5681;53.316;13.950;2023-04-01T00:41:26;7.95;;;7.15;;
11247;SDS011;5681;53.316;13.950;2023-04-01T00:46:43;9.73;;;8.20;;
11247;SDS011;5681;53.316;13.950;2023-04-01T00:49:09;10.13;;;8.63;;
11247;SDS011;5681;53.316;13.950;2023-04-01T00:51:35;9.32;;;8.43;;
11247;SDS011;5681;53.316;13.950;2023-04-01T00:54:05;9.23;;;8.27;;
11247;SDS011;5681;53.316;13.950;2023-04-01T00:56:33;9.57;;;8.65;;
11247;SDS011;5681;53.316;13.950;2023-04-01T00:59:03;9.23;;;8.20;;
11247;SDS011;5681;53.316;13.950;2023-04-01T01:01:33;9.23;;;7.80;;
11247;SDS011;5681;53.316;13.950;2023-04-01T01:04:00;8.50;;;7.70;;
11247;SDS011;5681;53.316;13.950;2023-04-01T01:06:30;8.80;;;7.72;;
11247;SDS011;5681;53.316;13.950;2023-04-01T01:09:14;7.55;;;6.78;;
11247;SDS011;5681;53.316;13.950;2023-04-01T01:11:50;8.32;;;7.07;;
11247;SDS011;5681;53.316;13.950;2023-04-01T01:14:24;8.15;;;7.35;;
11247;SDS011;5681;53.316;13.950;2023-04-01T01:16:54;8.15;;;7.30;;
11247;SDS011;5681;53.316;13.950;2023-04-01T01:19:31;9.43;;;8.07;;
11247;SDS011;5681;53.316;13.950;2023-04-01T01:22:17;8.85;;;7.43;;
11247;SDS011;5681;53.316;13.950;2023-04-01T01:24:54;8.90;;;8.00;;
11247;SDS011;5681;53.316;13.950;2023-04-01T01:27:27;9.90;;;7.25;;
11247;SDS011;5681;53.316;13.950;2023-04-01T01:30:00;10.55;;;7.55;;
11247;SDS011;5681;53.316;13.950;2023-04-01T01:32:38;8.38;;;7.57;;
11247;SDS011;5681;53.316;13.950;2023-04-01T01:35:16;8.18;;;7.38;;
11247;SDS011;5681;53.316;13.950;2023-04-01T01:37:46;8.93;;;7.32;;
11247;SDS011;5681;53.316;13.950;2023-04-01T01:40:15;9.20;;;8.15;;
11247;SDS011;5681;53.316;13.950;2023-04-01T01:42:43;7.45;;;6.50;;
11247;SDS011;5681;53.316;13.950;2023-04-01T01:45:12;6.05;;;5.47;;
11247;SDS011;5681;53.316;13.950;2023-04-01T01:47:39;5.85;;;4.93;;
11247;SDS011;5681;53.316;13.950;2023-04-01T01:50:07;6.40;;;5.13;;
11247;SDS011;5681;53.316;13.950;2023-04-01T01:52:35;5.80;;;4.80;;
11247;SDS011;5681;53.316;13.950;2023-04-01T01:55:02;5.25;;;4.65;;
11247;SDS011;5681;53.316;13.950;2023-04-01T01:57:30;5.07;;;4.57;;
11247;SDS011;5681;53.316;13.950;2023-04-01T01:59:58;5.10;;;4.60;;
11247;SDS011;5681;53.316;13.950;2023-04-01T02:02:29;4.50;;;4.10;;
11247;SDS011;5681;53.316;13.950;2023-04-01T02:04:57;4.68;;;3.83;;
11247;SDS011;5681;53.316;13.950;2023-04-01T02:07:25;5.70;;;3.95;;
11247;SDS011;5681;53.316;13.950;2023-04-01T02:09:55;4.15;;;3.75;;
11247;SDS011;5681;53.316;13.950;2023-04-01T02:12:21;4.53;;;3.65;;
11247;SDS011;5681;53.316;13.950;2023-04-01T02:14:50;4.18;;;3.70;;
11247;SDS011;5681;53.316;13.950;2023-04-01T02:17:19;5.63;;;3.97;;
11247;SDS011;5681;53.316;13.950;2023-04-01T02:19:47;4.65;;;3.83;;
11247;SDS011;5681;53.316;13.950;2023-04-01T02:22:18;6.05;;;4.18;;
11247;SDS011;5681;53.316;13.950;2023-04-01T02:24:47;4.57;;;3.80;;
11247;SDS011;5681;53.316;13.950;2023-04-01T02:27:16;5.18;;;4.28;;
11247;SDS011;5681;53.316;13.950;2023-04-01T02:29:43;6.47;;;5.00;;
11247;SDS011;5681;53.316;13.950;2023-04-01T02:32:09;7.38;;;5.45;;
11247;SDS011;5681;53.316;13.950;2023-04-01T02:34:36;8.23;;;6.03;;
11247;SDS011;5681;53.316;13.950;2023-04-01T02:37:02;10.02;;;7.13;;
11247;SDS011;5681;53.316;13.950;2023-04-01T02:39:29;12.10;;;7.50;;
11247;SDS011;5681;53.316;13.950;2023-04-01T02:41:55;12.95;;;8.13;;
11247;SDS011;5681;53.316;13.950;2023-04-01T02:44:23;12.68;;;8.27;;
11247;SDS011;5681;53.316;13.950;2023-04-01T02:46:49;13.13;;;8.02;;
11247;SDS011;5681;53.316;13.950;2023-04-01T02:49:16;9.50;;;7.43;;
11247;SDS011;5681;53.316;13.950;2023-04-01T02:51:42;11.40;;;7.47;;
11247;SDS011;5681;53.316;13.950;2023-04-01T02:54:08;9.43;;;7.03;;
11247;SDS011;5681;53.316;13.950;2023-04-01T02:56:35;10.15;;;6.75;;
11247;SDS011;5681;53.316;13.950;2023-04-01T02:59:01;12.70;;;7.73;;
11247;SDS011;5681;53.316;13.950;2023-04-01T03:01:29;8.95;;;7.05;;
11247;SDS011;5681;53.316;13.950;2023-04-01T03:03:55;11.80;;;7.77;;
11247;SDS011;5681;53.316;13.950;2023-04-01T03:06:22;14.93;;;7.50;;
11247;SDS011;5681;53.316;13.950;2023-04-01T03:08:48;15.27;;;7.57;;
11247;SDS011;5681;53.316;13.950;2023-04-01T03:11:15;11.50;;;7.07;;
11247;SDS011;5681;53.316;13.950;2023-04-01T03:13:41;8.87;;;6.10;;
11247;SDS011;5681;53.316;13.950;2023-04-01T03:16:07;8.70;;;6.40;;
11247;SDS011;5681;53.316;13.950;2023-04-01T03:18:35;7.33;;;5.70;;
11247;SDS011;5681;53.316;13.950;2023-04-01T03:21:12;8.43;;;5.70;;
11247;SDS011;5681;53.316;13.950;2023-04-01T03:23:39;6.50;;;4.90;;
11247;SDS011;5681;53.316;13.950;2023-04-01T03:26:05;6.93;;;5.55;;
11247;SDS011;5681;53.316;13.950;2023-04-01T03:28:38;8.03;;;5.53;;
11247;SDS011;5681;53.316;13.950;2023-04-01T03:31:05;8.03;;;5.23;;
11247;SDS011;5681;53.316;13.950;2023-04-01T03:33:31;5.67;;;4.83;;
11247;SDS011;5681;53.316;13.950;2023-04-01T03:35:59;6.30;;;5.17;;
11247;SDS011;5681;53.316;13.950;2023-04-01T03:38:25;7.07;;;4.57;;
11247;SDS011;5681;53.316;13.950;2023-04-01T03:40:52;6.17;;;5.07;;
11247;SDS011;5681;53.316;13.950;2023-04-01T03:43:18;7.37;;;4.67;;
11247;SDS011;5681;53.316;13.950;2023-04-01T03:45:45;7.17;;;4.70;;
11247;SDS011;5681;53.316;13.950;2023-04-01T03:48:12;7.00;;;4.83;;
11247;SDS011;5681;53.316;13.950;2023-04-01T03:50:38;6.77;;;4.73;;
11247;SDS011;5681;53.316;13.950;2023-04-01T03:53:06;5.40;;;4.32;;
11247;SDS011;5681;53.316;13.950;2023-04-01T03:55:33;7.50;;;4.80;;
11247;SDS011;5681;53.316;13.950;2023-04-01T03:57:59;6.23;;;4.77;;
11247;SDS011;5681;53.316;13.950;2023-04-01T04:00:27;6.60;;;4.40;;
11247;SDS011;5681;53.316;13.950;2023-04-01T04:02:53;6.57;;;4.50;;
11247;SDS011;5681;53.316;13.950;2023-04-01T04:05:20;5.57;;;4.37;;
11247;SDS011;5681;53.316;13.950;2023-04-01T04:07:47;9.77;;;4.70;;
11247;SDS011;5681;53.316;13.950;2023-04-01T04:10:14;9.13;;;4.93;;
11247;SDS011;5681;53.316;13.950;2023-04-01T04:12:41;5.37;;;4.70;;
11247;SDS011;5681;53.316;13.950;2023-04-01T04:15:07;6.40;;;4.97;;
11247;SDS011;5681;53.316;13.950;2023-04-01T04:17:34;6.13;;;4.70;;
11247;SDS011;5681;53.316;13.950;2023-04-01T04:20:01;8.57;;;5.83;;
11247;SDS011;5681;53.316;13.950;2023-04-01T04:22:27;7.73;;;6.03;;
11247;SDS011;5681;53.316;13.950;2023-04-01T04:24:53;8.17;;;6.67;;
11247;SDS011;5681;53.316;13.950;2023-04-01T04:27:21;8.70;;;6.50;;
11247;SDS011;5681;53.316;13.950;2023-04-01T04:29:47;8.20;;;6.40;;
11247;SDS011;5681;53.316;13.950;2023-04-01T04:32:14;7.47;;;6.30;;
11247;SDS011;5681;53.316;13.950;2023-04-01T04:34:40;9.13;;;6.43;;
11247;SDS011;5681;53.316;13.950;2023-04-01T04:37:06;8.90;;;6.37;;
11247;SDS011;5681;53.316;13.950;2023-04-01T04:39:33;6.87;;;5.90;;
11247;SDS011;5681;53.316;13.950;2023-04-01T04:41:59;7.30;;;5.97;;
11247;SDS011;5681;53.316;13.950;2023-04-01T04:44:27;8.43;;;6.60;;
11247;SDS011;5681;53.316;13.950;2023-04-01T04:46:53;7.47;;;6.37;;
11247;SDS011;5681;53.316;13.950;2023-04-01T04:49:20;8.53;;;6.30;;
11247;SDS011;5681;53.316;13.950;2023-04-01T04:51:46;9.50;;;6.67;;
11247;SDS011;5681;53.316;13.950;2023-04-01T04:54:13;8.87;;;6.20;;
11247;SDS011;5681;53.316;13.950;2023-04-01T04:56:39;8.00;;;6.57;;
11247;SDS011;5681;53.316;13.950;2023-04-01T04:59:05;8.17;;;6.00;;
11247;SDS011;5681;53.316;13.950;2023-04-01T05:01:33;7.60;;;5.37;;
11247;SDS011;5681;53.316;13.950;2023-04-01T05:04:00;5.87;;;5.27;;
11247;SDS011;5681;53.316;13.950;2023-04-01T05:06:26;8.43;;;5.60;;
11247;SDS011;5681;53.316;13.950;2023-04-01T05:08:54;5.70;;;5.00;;
11247;SDS011;5681;53.316;13.950;2023-04-01T05:11:21;6.63;;;5.30;;
11247;SDS011;5681;53.316;13.950;2023-04-01T05:13:48;5.33;;;4.80;;
11247;SDS011;5681;53.316;13.950;2023-04-01T05:16:16;6.53;;;5.07;;
11247;SDS011;5681;53.316;13.950;2023-04-01T05:18:44;5.20;;;4.70;;
11247;SDS011;5681;53.316;13.950;2023-04-01T05:21:12;6.00;;;4.70;;
11247;SDS011;5681;53.316;13.950;2023-04-01T05:23:39;5.83;;;4.90;;
11247;SDS011;5681;53.316;13.950;2023-04-01T05:26:05;5.73;;;4.47;;
11247;SDS011;5681;53.316;13.950;2023-04-01T05:28:32;6.20;;;4.50;;
11247;SDS011;5681;53.316;13.950;2023-04-01T05:30:58;4.63;;;4.20;;
11247;SDS011;5681;53.316;13.950;2023-04-01T05:33:25;5.40;;;3.80;;
11247;SDS011;5681;53.316;13.950;2023-04-01T05:35:53;5.33;;;3.90;;
11247;SDS011;5681;53.316;13.950;2023-04-01T05:38:19;4.93;;;3.63;;
11247;SDS011;5681;53.316;13.950;2023-04-01T05:40:46;5.03;;;3.83;;
11247;SDS011;5681;53.316;13.950;2023-04-01T05:43:12;4.10;;;3.30;;
11247;SDS011;5681;53.316;13.950;2023-04-01T05:45:38;4.10;;;3.57;;
11247;SDS011;5681;53.316;13.950;2023-04-01T05:48:05;3.97;;;3.37;;
11247;SDS011;5681;53.316;13.950;2023-04-01T05:50:31;5.07;;;3.47;;
11247;SDS011;5681;53.316;13.950;2023-04-01T05:52:59;5.00;;;3.50;;
11247;SDS011;5681;53.316;13.950;2023-04-01T05:55:26;3.93;;;3.20;;
11247;SDS011;5681;53.316;13.950;2023-04-01T05:57:52;3.23;;;2.63;;
11247;SDS011;5681;53.316;13.950;2023-04-01T06:00:18;4.00;;;3.30;;
11247;SDS011;5681;53.316;13.950;2023-04-01T06:02:46;5.30;;;3.33;;
11247;SDS011;5681;53.316;13.950;2023-04-01T06:05:13;4.10;;;2.97;;
11247;SDS011;5681;53.316;13.950;2023-04-01T06:07:42;4.87;;;3.23;;
11247;SDS011;5681;53.316;13.950;2023-04-01T06:10:11;4.23;;;3.27;;
11247;SDS011;5681;53.316;13.950;2023-04-01T06:12:46;4.20;;;3.13;;
11247;SDS011;5681;53.316;13.950;2023-04-01T06:15:21;5.20;;;3.07;;
11247;SDS011;5681;53.316;13.950;2023-04-01T06:20:59;4.33;;;3.20;;
11247;SDS011;5681;53.316;13.950;2023-04-01T06:23:32;4.13;;;3.37;;
11247;SDS011;5681;53.316;13.950;2023-04-01T06:26:09;3.80;;;3.33;;
11247;SDS011;5681;53.316;13.950;2023-04-01T06:28:43;3.97;;;3.50;;
11247;SDS011;5681;53.316;13.950;2023-04-01T06:31:19;4.40;;;3.27;;
11247;SDS011;5681;53.316;13.950;2023-04-01T06:33:55;4.50;;;3.43;;
11247;SDS011;5681;53.316;13.950;2023-04-01T06:36:38;4.90;;;3.70;;
11247;SDS011;5681;53.316;13.950;2023-04-01T06:39:21;4.07;;;3.43;;
11247;SDS011;5681;53.316;13.950;2023-04-01T06:44:49;3.93;;;3.53;;
11247;SDS011;5681;53.316;13.950;2023-04-01T06:47:23;7.10;;;4.20;;
11247;SDS011;5681;53.316;13.950;2023-04-01T06:49:56;4.90;;;3.70;;
11247;SDS011;5681;53.316;13.950;2023-04-01T06:52:27;5.67;;;4.17;;
11247;SDS011;5681;53.316;13.950;2023-04-01T06:54:58;5.20;;;4.40;;
11247;SDS011;5681;53.316;13.950;2023-04-01T06:57:30;6.50;;;4.20;;
11247;SDS011;5681;53.316;13.950;2023-04-01T07:00:01;4.70;;;3.87;;
11247;SDS011;5681;53.316;13.950;2023-04-01T07:02:32;5.23;;;4.00;;
11247;SDS011;5681;53.316;13.950;2023-04-01T07:05:02;5.03;;;4.20;;
11247;SDS011;5681;53.316;13.950;2023-04-01T07:07:31;4.60;;;4.07;;
11247;SDS011;5681;53.316;13.950;2023-04-01T07:10:00;5.93;;;3.73;;
11247;SDS011;5681;53.316;13.950;2023-04-01T07:12:32;4.53;;;3.80;;
11247;SDS011;5681;53.316;13.950;2023-04-01T07:15:11;6.83;;;4.30;;
11247;SDS011;5681;53.316;13.950;2023-04-01T07:17:42;8.17;;;4.23;;
11247;SDS011;5681;53.316;13.950;2023-04-01T07:20:11;4.63;;;4.17;;
11247;SDS011;5681;53.316;13.950;2023-04-01T07:22:41;5.77;;;4.40;;
11247;SDS011;5681;53.316;13.950;2023-04-01T07:25:11;5.20;;;3.93;;
11247;SDS011;5681;53.316;13.950;2023-04-01T07:27:40;3.83;;;3.53;;
11247;SDS011;5681;53.316;13.950;2023-04-01T07:30:12;5.23;;;4.20;;
11247;SDS011;5681;53.316;13.950;2023-04-01T07:32:40;4.97;;;3.80;;
11247;SDS011;5681;53.316;13.950;2023-04-01T07:35:13;6.23;;;4.13;;
11247;SDS011;5681;53.316;13.950;2023-04-01T07:37:48;5.23;;;3.70;;
11247;SDS011;5681;53.316;13.950;2023-04-01T07:40:24;4.70;;;4.03;;
11247;SDS011;5681;53.316;13.950;2023-04-01T07:43:00;6.30;;;4.37;;
11247;SDS011;5681;53.316;13.950;2023-04-01T07:45:33;4.93;;;4.20;;
11247;SDS011;5681;53.316;13.950;2023-04-01T07:48:06;4.90;;;4.10;;
11247;SDS011;5681;53.316;13.950;2023-04-01T07:50:40;6.03;;;3.80;;
11247;SDS011;5681;53.316;13.950;2023-04-01T07:53:11;4.77;;;4.10;;
11247;SDS011;5681;53.316;13.950;2023-04-01T07:55:42;5.97;;;4.13;;
11247;SDS011;5681;53.316;13.950;2023-04-01T07:58:14;5.17;;;4.20;;
11247;SDS011;5681;53.316;13.950;2023-04-01T08:00:44;5.17;;;4.30;;
11247;SDS011;5681;53.316;13.950;2023-04-01T08:03:17;6.40;;;4.40;;
11247;SDS011;5681;53.316;13.950;2023-04-01T08:05:50;5.37;;;4.03;;
11247;SDS011;5681;53.316;13.950;2023-04-01T08:08:24;6.07;;;4.23;;
11247;SDS011;5681;53.316;13.950;2023-04-01T08:10:57;7.37;;;4.60;;
11247;SDS011;5681;53.316;13.950;2023-04-01T08:13:31;4.23;;;3.83;;
11247;SDS011;5681;53.316;13.950;2023-04-01T08:16:03;4.73;;;4.17;;
11247;SDS011;5681;53.316;13.950;2023-04-01T08:18:35;5.57;;;4.23;;
11247;SDS011;5681;53.316;13.950;2023-04-01T08:21:05;5.80;;;4.40;;
11247;SDS011;5681;53.316;13.950;2023-04-01T08:23:36;5.77;;;4.40;;
11247;SDS011;5681;53.316;13.950;2023-04-01T08:26:06;4.57;;;4.00;;
11247;SDS011;5681;53.316;13.950;2023-04-01T08:28:37;5.57;;;4.90;;
11247;SDS011;5681;53.316;13.950;2023-04-01T08:31:05;10.70;;;5.40;;
11247;SDS011;5681;53.316;13.950;2023-04-01T08:33:35;6.20;;;5.50;;
11247;SDS011;5681;53.316;13.950;2023-04-01T08:36:03;6.37;;;5.47;;
11247;SDS011;5681;53.316;13.950;2023-04-01T08:38:34;7.13;;;5.37;;
11247;SDS011;5681;53.316;13.950;2023-04-01T08:41:11;6.20;;;5.57;;
11247;SDS011;5681;53.316;13.950;2023-04-01T08:44:02;6.57;;;5.87;;
11247;SDS011;5681;53.316;13.950;2023-04-01T08:46:41;6.30;;;5.33;;
11247;SDS011;5681;53.316;13.950;2023-04-01T08:49:17;5.87;;;4.67;;
11247;SDS011;5681;53.316;13.950;2023-04-01T08:51:58;5.83;;;5.03;;
11247;SDS011;5681;53.316;13.950;2023-04-01T08:54:41;5.97;;;4.87;;
11247;SDS011;5681;53.316;13.950;2023-04-01T08:57:21;6.00;;;5.40;;
11247;SDS011;5681;53.316;13.950;2023-04-01T09:00:00;7.30;;;5.97;;
11247;SDS011;5681;53.316;13.950;2023-04-01T09:02:42;8.90;;;5.80;;
11247;SDS011;5681;53.316;13.950;2023-04-01T09:08:11;8.57;;;5.63;;
11247;SDS011;5681;53.316;13.950;2023-04-01T09:10:49;6.73;;;5.20;;
11247;SDS011;5681;53.316;13.950;2023-04-01T09:16:30;7.63;;;5.13;;
11247;SDS011;5681;53.316;13.950;2023-04-01T09:19:19;6.20;;;4.50;;
11247;SDS011;5681;53.316;13.950;2023-04-01T09:21:57;7.40;;;4.90;;
11247;SDS011;5681;53.316;13.950;2023-04-01T09:24:46;5.57;;;4.60;;
11247;SDS011;5681;53.316;13.950;2023-04-01T09:27:44;5.83;;;4.60;;
11247;SDS011;5681;53.316;13.950;2023-04-01T09:30:25;6.73;;;4.50;;
11247;SDS011;5681;53.316;13.950;2023-04-01T09:36:10;6.77;;;4.93;;
11247;SDS011;5681;53.316;13.950;2023-04-01T09:38:44;7.50;;;4.60;;
11247;SDS011;5681;53.316;13.950;2023-04-01T09:41:22;6.83;;;4.20;;
11247;SDS011;5681;53.316;13.950;2023-04-01T09:44:02;7.17;;;4.40;;
11247;SDS011;5681;53.316;13.950;2023-04-01T09:46:40;6.37;;;4.67;;
11247;SDS011;5681;53.316;13.950;2023-04-01T09:52:22;5.83;;;4.90;;
11247;SDS011;5681;53.316;13.950;2023-04-01T09:54:56;8.27;;;4.67;;
11247;SDS011;5681;53.316;13.950;2023-04-01T09:57:45;6.43;;;4.80;;
11247;SDS011;5681;53.316;13.950;2023-04-01T10:00:32;6.27;;;4.23;;
11247;SDS011;5681;53.316;13.950;2023-04-01T10:03:19;8.40;;;5.90;;
11247;SDS011;5681;53.316;13.950;2023-04-01T10:09:14;6.20;;;4.83;;
11247;SDS011;5681;53.316;13.950;2023-04-01T10:12:19;9.97;;;6.80;;
11247;SDS011;5681;53.316;13.950;2023-04-01T10:15:00;7.10;;;5.70;;
11247;SDS011;5681;53.316;13.950;2023-04-01T10:18:12;6.47;;;4.63;;
11247;SDS011;5681;53.316;13.950;2023-04-01T10:20:55;5.60;;;5.00;;
11247;SDS011;5681;53.316;13.950;2023-04-01T10:23:32;7.23;;;4.93;;
11247;SDS011;5681;53.316;13.950;2023-04-01T10:26:14;7.37;;;5.10;;
11247;SDS011;5681;53.316;13.950;2023-04-01T10:32:11;8.20;;;4.43;;
11247;SDS011;5681;53.316;13.950;2023-04-01T10:35:03;5.67;;;3.73;;
11247;SDS011;5681;53.316;13.950;2023-04-01T10:37:55;4.83;;;4.40;;
11247;SDS011;5681;53.316;13.950;2023-04-01T10:41:05;8.33;;;4.30;;
11247;SDS011;5681;53.316;13.950;2023-04-01T10:44:03;5.73;;;4.17;;
11247;SDS011;5681;53.316;13.950;2023-04-01T10:47:01;6.90;;;3.93;;
11247;SDS011;5681;53.316;13.950;2023-04-01T10:52:37;6.87;;;4.03;;
11247;SDS011;5681;53.316;13.950;2023-04-01T10:55:22;6.27;;;3.80;;
11247;SDS011;5681;53.316;13.950;2023-04-01T10:58:13;4.67;;;3.40;;
11247;SDS011;5681;53.316;13.950;2023-04-01T11:01:01;5.87;;;3.27;;
11247;SDS011;5681;53.316;13.950;2023-04-01T11:03:46;7.30;;;3.70;;
11247;SDS011;5681;53.316;13.950;2023-04-01T11:06:41;4.57;;;3.60;;
11247;SDS011;5681;53.316;13.950;2023-04-01T11:09:36;4.20;;;3.30;;
11247;SDS011;5681;53.316;13.950;2023-04-01T11:12:33;5.97;;;4.20;;
11247;SDS011;5681;53.316;13.950;2023-04-01T11:15:16;5.80;;;4.00;;
11247;SDS011;5681;53.316;13.950;2023-04-01T11:21:21;5.80;;;3.80;;
11247;SDS011;5681;53.316;13.950;2023-04-01T11:27:04;6.63;;;4.60;;
11247;SDS011;5681;53.316;13.950;2023-04-01T11:29:41;7.40;;;5.00;;
11247;SDS011;5681;53.316;13.950;2023-04-01T11:32:19;8.70;;;5.53;;
11247;SDS011;5681;53.316;13.950;2023-04-01T11:34:55;6.47;;;4.40;;
11247;SDS011;5681;53.316;13.950;2023-04-01T11:37:33;6.30;;;4.80;;
11247;SDS011;5681;53.316;13.950;2023-04-01T11:40:06;8.80;;;5.03;;
11247;SDS011;5681;53.316;13.950;2023-04-01T11:42:40;6.47;;;4.50;;
11247;SDS011;5681;53.316;13.950;2023-04-01T11:45:17;12.87;;;5.10;;
11247;SDS011;5681;53.316;13.950;2023-04-01T11:48:07;6.70;;;4.80;;
11247;SDS011;5681;53.316;13.950;2023-04-01T11:50:44;6.90;;;4.90;;
11247;SDS011;5681;53.316;13.950;2023-04-01T11:53:35;9.03;;;4.70;;
11247;SDS011;5681;53.316;13.950;2023-04-01T11:56:09;7.83;;;4.80;;
11247;SDS011;5681;53.316;13.950;2023-04-01T11:58:53;6.67;;;4.70;;
11247;SDS011;5681;53.316;13.950;2023-04-01T12:01:27;8.30;;;5.07;;
11247;SDS011;5681;53.316;13.950;2023-04-01T12:07:17;7.20;;;3.70;;
11247;SDS011;5681;53.316;13.950;2023-04-01T12:09:49;5.50;;;4.50;;
11247;SDS011;5681;53.316;13.950;2023-04-01T12:12:23;6.30;;;3.77;;
11247;SDS011;5681;53.316;13.950;2023-04-01T12:14:57;7.13;;;3.43;;
11247;SDS011;5681;53.316;13.950;2023-04-01T12:17:30;5.93;;;3.57;;
11247;SDS011;5681;53.316;13.950;2023-04-01T12:20:10;4.93;;;3.10;;
11247;SDS011;5681;53.316;13.950;2023-04-01T12:22:53;5.73;;;3.50;;
11247;SDS011;5681;53.316;13.950;2023-04-01T12:25:27;4.37;;;3.30;;
11247;SDS011;5681;53.316;13.950;2023-04-01T12:28:06;5.90;;;3.40;;
11247;SDS011;5681;53.316;13.950;2023-04-01T12:30:45;9.53;;;4.10;;
11247;SDS011;5681;53.316;13.950;2023-04-01T12:33:20;7.17;;;3.10;;
11247;SDS011;5681;53.316;13.950;2023-04-01T12:36:00;5.50;;;3.07;;
11247;SDS011;5681;53.316;13.950;2023-04-01T12:38:36;6.93;;;3.20;;
11247;SDS011;5681;53.316;13.950;2023-04-01T12:41:12;8.17;;;3.37;;
11247;SDS011;5681;53.316;13.950;2023-04-01T12:43:49;6.90;;;3.60;;
11247;SDS011;5681;53.316;13.950;2023-04-01T12:46:25;4.30;;;2.80;;
11247;SDS011;5681;53.316;13.950;2023-04-01T12:49:09;7.27;;;3.10;;
11247;SDS011;5681;53.316;13.950;2023-04-01T12:51:47;4.37;;;3.20;;
11247;SDS011;5681;53.316;13.950;2023-04-01T12:54:40;4.87;;;3.03;;
11247;SDS011;5681;53.316;13.950;2023-04-01T12:57:19;4.83;;;3.07;;
11247;SDS011;5681;53.316;13.950;2023-04-01T12:59:56;5.83;;;3.27;;
11247;SDS011;5681;53.316;13.950;2023-04-01T13:02:32;6.03;;;3.40;;
11247;SDS011;5681;53.316;13.950;2023-04-01T13:05:23;5.60;;;2.90;;
11247;SDS011;5681;53.316;13.950;2023-04-01T13:10:53;6.10;;;3.33;;
11247;SDS011;5681;53.316;13.950;2023-04-01T13:13:47;5.77;;;3.50;;
11247;SDS011;5681;53.316;13.950;2023-04-01T13:16:23;7.80;;;3.50;;
11247;SDS011;5681;53.316;13.950;2023-04-01T13:18:54;7.90;;;3.73;;
11247;SDS011;5681;53.316;13.950;2023-04-01T13:21:25;5.23;;;3.37;;
11247;SDS011;5681;53.316;13.950;2023-04-01T13:24:10;10.30;;;3.23;;
11247;SDS011;5681;53.316;13.950;2023-04-01T13:26:45;6.70;;;3.20;;
11247;SDS011;5681;53.316;13.950;2023-04-01T13:29:20;9.40;;;3.77;;
11247;SDS011;5681;53.316;13.950;2023-04-01T13:31:53;5.83;;;3.20;;
11247;SDS011;5681;53.316;13.950;2023-04-01T13:34:36;6.53;;;3.40;;
11247;SDS011;5681;53.316;13.950;2023-04-01T13:37:20;8.03;;;3.07;;
11247;SDS011;5681;53.316;13.950;2023-04-01T13:39:57;8.33;;;3.27;;
11247;SDS011;5681;53.316;13.950;2023-04-01T13:42:31;8.17;;;3.20;;
11247;SDS011;5681;53.316;13.950;2023-04-01T13:45:00;5.20;;;3.33;;
11247;SDS011;5681;53.316;13.950;2023-04-01T13:47:50;4.77;;;3.10;;
11247;SDS011;5681;53.316;13.950;2023-04-01T13:50:46;3.97;;;2.60;;
11247;SDS011;5681;53.316;13.950;2023-04-01T13:53:29;4.53;;;3.03;;
11247;SDS011;5681;53.316;13.950;2023-04-01T13:56:04;5.23;;;3.00;;
11247;SDS011;5681;53.316;13.950;2023-04-01T13:58:45;5.87;;;3.00;;
11247;SDS011;5681;53.316;13.950;2023-04-01T14:01:19;5.20;;;2.70;;
11247;SDS011;5681;53.316;13.950;2023-04-01T14:04:02;4.40;;;2.50;;
11247;SDS011;5681;53.316;13.950;2023-04-01T14:06:34;3.23;;;2.43;;
11247;SDS011;5681;53.316;13.950;2023-04-01T14:09:10;5.63;;;2.87;;
11247;SDS011;5681;53.316;13.950;2023-04-01T14:11:49;5.53;;;2.57;;
11247;SDS011;5681;53.316;13.950;2023-04-01T14:14:24;5.13;;;3.23;;
11247;SDS011;5681;53.316;13.950;2023-04-01T14:17:02;6.27;;;3.33;;
11247;SDS011;5681;53.316;13.950;2023-04-01T14:19:39;3.97;;;3.07;;
11247;SDS011;5681;53.316;13.950;2023-04-01T14:22:18;4.77;;;3.07;;
11247;SDS011;5681;53.316;13.950;2023-04-01T14:24:52;6.40;;;3.37;;
11247;SDS011;5681;53.316;13.950;2023-04-01T14:27:32;4.57;;;3.10;;
11247;SDS011;5681;53.316;13.950;2023-04-01T14:30:10;6.67;;;3.07;;
11247;SDS011;5681;53.316;13.950;2023-04-01T14:32:46;8.37;;;3.77;;
11247;SDS011;5681;53.316;13.950;2023-04-01T14:38:12;8.17;;;4.40;;
11247;SDS011;5681;53.316;13.950;2023-04-01T14:40:58;9.63;;;4.20;;
11247;SDS011;5681;53.316;13.950;2023-04-01T14:43:40;8.87;;;4.73;;
11247;SDS011;5681;53.316;13.950;2023-04-01T14:46:23;6.80;;;4.50;;
11247;SDS011;5681;53.316;13.950;2023-04-01T14:48:57;8.13;;;4.13;;
11247;SDS011;5681;53.316;13.950;2023-04-01T14:51:28;8.47;;;4.00;;
11247;SDS011;5681;53.316;13.950;2023-04-01T14:53:58;9.20;;;4.67;;
11247;SDS011;5681;53.316;13.950;2023-04-01T14:56:38;8.67;;;4.83;;
11247;SDS011;5681;53.316;13.950;2023-04-01T14:59:08;10.57;;;3.87;;
11247;SDS011;5681;53.316;13.950;2023-04-01T15:01:44;10.20;;;4.43;;
11247;SDS011;5681;53.316;13.950;2023-04-01T15:04:22;7.87;;;4.23;;
11247;SDS011;5681;53.316;13.950;2023-04-01T15:07:03;8.87;;;4.27;;
11247;SDS011;5681;53.316;13.950;2023-04-01T15:09:36;11.37;;;4.70;;
11247;SDS011;5681;53.316;13.950;2023-04-01T15:12:11;7.67;;;4.10;;
11247;SDS011;5681;53.316;13.950;2023-04-01T15:14:46;10.20;;;4.40;;
11247;SDS011;5681;53.316;13.950;2023-04-01T15:17:35;9.47;;;4.87;;
11247;SDS011;5681;53.316;13.950;2023-04-01T15:20:18;9.63;;;4.80;;
11247;SDS011;5681;53.316;13.950;2023-04-01T15:22:54;9.00;;;4.40;;
11247;SDS011;5681;53.316;13.950;2023-04-01T15:25:34;9.07;;;4.80;;
11247;SDS011;5681;53.316;13.950;2023-04-01T15:28:11;9.33;;;4.60;;
11247;SDS011;5681;53.316;13.950;2023-04-01T15:30:47;12.23;;;4.83;;
11247;SDS011;5681;53.316;13.950;2023-04-01T15:33:26;8.87;;;4.50;;
11247;SDS011;5681;53.316;13.950;2023-04-01T15:36:01;8.13;;;4.17;;
11247;SDS011;5681;53.316;13.950;2023-04-01T15:38:33;8.67;;;4.27;;
11247;SDS011;5681;53.316;13.950;2023-04-01T15:41:03;12.07;;;4.20;;
11247;SDS011;5681;53.316;13.950;2023-04-01T15:43:40;5.53;;;4.30;;
11247;SDS011;5681;53.316;13.950;2023-04-01T15:46:11;7.10;;;4.30;;
11247;SDS011;5681;53.316;13.950;2023-04-01T15:49:07;10.60;;;5.03;;
11247;SDS011;5681;53.316;13.950;2023-04-01T15:51:48;6.13;;;4.30;;
11247;SDS011;5681;53.316;13.950;2023-04-01T15:54:23;8.97;;;4.90;;
11247;SDS011;5681;53.316;13.950;2023-04-01T15:57:04;9.63;;;4.33;;
11247;SDS011;5681;53.316;13.950;2023-04-01T15:59:47;9.53;;;4.43;;
11247;SDS011;5681;53.316;13.950;2023-04-01T16:02:21;7.97;;;4.47;;
11247;SDS011;5681;53.316;13.950;2023-04-01T16:04:54;8.93;;;4.53;;
11247;SDS011;5681;53.316;13.950;2023-04-01T16:07:28;9.90;;;4.87;;
11247;SDS011;5681;53.316;13.950;2023-04-01T16:10:09;8.73;;;4.57;;
11247;SDS011;5681;53.316;13.950;2023-04-01T16:12:57;10.17;;;4.60;;
11247;SDS011;5681;53.316;13.950;2023-04-01T16:15:32;9.00;;;4.70;;